sensor_id;sensor_type;location;lat;lon;timestamp;P1;durP1;ratioP1;P2;durP2;ratioP2
47529;SDS011;33272;51.922;7.730;2023-09-08T00:00:50;8.57;;;5.90;;
47529;SDS011;33272;51.922;7.730;2023-09-08T00:03:17;7.23;;;5.67;;
47529;SDS011;33272;51.922;7.730;2023-09-08T00:05:46;8.73;;;6.03;;
47529;SDS011;33272;51.922;7.730;2023-09-08T00:08:13;7.47;;;6.53;;
47529;SDS011;33272;51.922;7.730;2023-09-08T00:10:42;6.87;;;6.13;;
47529;SDS011;33272;51.922;7.730;2023-09-08T00:13:08;6.87;;;6.17;;
47529;SDS011;33272;51.922;7.730;2023-09-08T00:15:36;10.17;;;6.57;;
47529;SDS011;33272;51.922;7.730;2023-09-08T00:18:03;8.37;;;6.50;;
47529;SDS011;33272;51.922;7.730;2023-09-08T00:20:30;6.90;;;5.93;;
47529;SDS011;33272;51.922;7.730;2023-09-08T00:22:57;8.40;;;6.17;;
47529;SDS011;33272;51.922;7.730;2023-09-08T00:25:24;7.00;;;6.17;;
47529;SDS011;33272;51.922;7.730;2023-09-08T00:27:52;8.17;;;6.53;;
47529;SDS011;33272;51.922;7.730;2023-09-08T00:30:19;8.00;;;6.33;;
47529;SDS011;33272;51.922;7.730;2023-09-08T00:32:46;9.30;;;6.80;;
47529;SDS011;33272;51.922;7.730;2023-09-08T00:35:13;8.20;;;6.00;;
47529;SDS011;33272;51.922;7.730;2023-09-08T00:37:40;7.50;;;6.70;;
47529;SDS011;33272;51.922;7.730;2023-09-08T00:40:08;8.30;;;7.10;;
47529;SDS011;33272;51.922;7.730;2023-09-08T00:42:36;7.57;;;6.83;;
47529;SDS011;33272;51.922;7.730;2023-09-08T00:45:04;7.73;;;6.70;;
47529;SDS011;33272;51.922;7.730;2023-09-08T00:47:32;8.33;;;6.47;;
47529;SDS011;33272;51.922;7.730;2023-09-08T00:50:00;11.93;;;6.97;;
47529;SDS011;33272;51.922;7.730;2023-09-08T00:52:28;9.17;;;7.00;;
47529;SDS011;33272;51.922;7.730;2023-09-08T00:54:57;6.97;;;6.27;;
47529;SDS011;33272;51.922;7.730;2023-09-08T00:57:25;8.63;;;7.20;;
47529;SDS011;33272;51.922;7.730;2023-09-08T00:59:52;8.30;;;7.37;;
47529;SDS011;33272;51.922;7.730;2023-09-08T01:02:21;7.60;;;6.83;;
47529;SDS011;33272;51.922;7.730;2023-09-08T01:04:48;8.00;;;7.00;;
47529;SDS011;33272;51.922;7.730;2023-09-08T01:07:16;8.00;;;6.90;;
47529;SDS011;33272;51.922;7.730;2023-09-08T01:09:45;7.57;;;6.77;;
47529;SDS011;33272;51.922;7.730;2023-09-08T01:12:13;7.87;;;7.07;;
47529;SDS011;33272;51.922;7.730;2023-09-08T01:14:41;8.07;;;7.03;;
47529;SDS011;33272;51.922;7.730;2023-09-08T01:17:08;8.10;;;6.73;;
47529;SDS011;33272;51.922;7.730;2023-09-08T01:19:38;8.37;;;7.47;;
47529;SDS011;33272;51.922;7.730;2023-09-08T01:22:11;9.17;;;7.40;;
47529;SDS011;33272;51.922;7.730;2023-09-08T01:27:58;8.53;;;6.93;;
47529;SDS011;33272;51.922;7.730;2023-09-08T01:30:29;8.50;;;7.33;;
47529;SDS011;33272;51.922;7.730;2023-09-08T01:32:58;10.03;;;6.80;;
47529;SDS011;33272;51.922;7.730;2023-09-08T01:35:26;9.63;;;7.20;;
47529;SDS011;33272;51.922;7.730;2023-09-08T01:37:53;9.60;;;7.33;;
47529;SDS011;33272;51.922;7.730;2023-09-08T01:40:20;7.20;;;6.50;;
47529;SDS011;33272;51.922;7.730;2023-09-08T01:42:48;8.40;;;7.60;;
47529;SDS011;33272;51.922;7.730;2023-09-08T01:45:15;7.50;;;6.73;;
47529;SDS011;33272;51.922;7.730;2023-09-08T01:47:43;9.07;;;7.73;;
47529;SDS011;33272;51.922;7.730;2023-09-08T01:50:10;8.27;;;7.40;;
47529;SDS011;33272;51.922;7.730;2023-09-08T01:52:36;8.53;;;7.30;;
47529;SDS011;33272;51.922;7.730;2023-09-08T01:55:04;8.53;;;7.67;;
47529;SDS011;33272;51.922;7.730;2023-09-08T01:57:32;9.53;;;7.53;;
47529;SDS011;33272;51.922;7.730;2023-09-08T02:00:01;8.83;;;7.93;;
47529;SDS011;33272;51.922;7.730;2023-09-08T02:02:28;8.30;;;7.50;;
47529;SDS011;33272;51.922;7.730;2023-09-08T02:04:55;8.83;;;7.10;;
47529;SDS011;33272;51.922;7.730;2023-09-08T02:07:22;7.90;;;7.10;;
47529;SDS011;33272;51.922;7.730;2023-09-08T02:09:49;8.67;;;7.83;;
47529;SDS011;33272;51.922;7.730;2023-09-08T02:12:16;10.33;;;7.80;;
47529;SDS011;33272;51.922;7.730;2023-09-08T02:14:43;8.27;;;7.40;;
47529;SDS011;33272;51.922;7.730;2023-09-08T02:17:11;8.80;;;7.53;;
47529;SDS011;33272;51.922;7.730;2023-09-08T02:19:38;9.30;;;8.00;;
47529;SDS011;33272;51.922;7.730;2023-09-08T02:22:05;9.07;;;8.17;;
47529;SDS011;33272;51.922;7.730;2023-09-08T02:24:32;9.53;;;8.60;;
47529;SDS011;33272;51.922;7.730;2023-09-08T02:26:59;9.70;;;8.60;;
47529;SDS011;33272;51.922;7.730;2023-09-08T02:29:26;10.73;;;8.60;;
47529;SDS011;33272;51.922;7.730;2023-09-08T02:31:53;9.03;;;8.13;;
47529;SDS011;33272;51.922;7.730;2023-09-08T02:34:21;9.87;;;8.47;;
47529;SDS011;33272;51.922;7.730;2023-09-08T02:36:48;9.77;;;8.37;;
47529;SDS011;33272;51.922;7.730;2023-09-08T02:39:16;8.97;;;8.07;;
47529;SDS011;33272;51.922;7.730;2023-09-08T02:41:43;9.30;;;8.13;;
47529;SDS011;33272;51.922;7.730;2023-09-08T02:44:10;9.17;;;8.27;;
47529;SDS011;33272;51.922;7.730;2023-09-08T02:46:36;9.70;;;8.70;;
47529;SDS011;33272;51.922;7.730;2023-09-08T02:49:03;8.60;;;7.67;;
47529;SDS011;33272;51.922;7.730;2023-09-08T02:51:33;8.40;;;7.57;;
47529;SDS011;33272;51.922;7.730;2023-09-08T02:54:00;8.93;;;8.03;;
47529;SDS011;33272;51.922;7.730;2023-09-08T02:56:27;11.07;;;8.10;;
47529;SDS011;33272;51.922;7.730;2023-09-08T02:58:54;9.30;;;8.40;;
47529;SDS011;33272;51.922;7.730;2023-09-08T03:01:21;9.17;;;7.40;;
47529;SDS011;33272;51.922;7.730;2023-09-08T03:03:48;8.80;;;7.90;;
47529;SDS011;33272;51.922;7.730;2023-09-08T03:06:15;9.87;;;7.70;;
47529;SDS011;33272;51.922;7.730;2023-09-08T03:08:47;9.27;;;8.27;;
47529;SDS011;33272;51.922;7.730;2023-09-08T03:11:14;9.10;;;8.20;;
47529;SDS011;33272;51.922;7.730;2023-09-08T03:13:41;9.63;;;8.23;;
47529;SDS011;33272;51.922;7.730;2023-09-08T03:16:08;10.23;;;8.30;;
47529;SDS011;33272;51.922;7.730;2023-09-08T03:18:36;10.40;;;8.87;;
47529;SDS011;33272;51.922;7.730;2023-09-08T03:21:04;9.00;;;8.13;;
47529;SDS011;33272;51.922;7.730;2023-09-08T03:23:35;12.13;;;8.50;;
47529;SDS011;33272;51.922;7.730;2023-09-08T03:26:03;10.20;;;8.47;;
47529;SDS011;33272;51.922;7.730;2023-09-08T03:28:31;9.63;;;8.70;;
47529;SDS011;33272;51.922;7.730;2023-09-08T03:30:59;9.93;;;8.77;;
47529;SDS011;33272;51.922;7.730;2023-09-08T03:33:27;10.87;;;9.63;;
47529;SDS011;33272;51.922;7.730;2023-09-08T03:35:54;11.50;;;8.60;;
47529;SDS011;33272;51.922;7.730;2023-09-08T03:38:21;10.80;;;9.23;;
47529;SDS011;33272;51.922;7.730;2023-09-08T03:40:48;10.10;;;8.57;;
47529;SDS011;33272;51.922;7.730;2023-09-08T03:43:17;9.53;;;8.53;;
47529;SDS011;33272;51.922;7.730;2023-09-08T03:45:44;11.07;;;9.10;;
47529;SDS011;33272;51.922;7.730;2023-09-08T03:48:13;10.80;;;9.00;;
47529;SDS011;33272;51.922;7.730;2023-09-08T03:50:40;10.33;;;9.33;;
47529;SDS011;33272;51.922;7.730;2023-09-08T03:53:10;11.10;;;9.60;;
47529;SDS011;33272;51.922;7.730;2023-09-08T03:55:37;10.23;;;8.73;;
47529;SDS011;33272;51.922;7.730;2023-09-08T03:58:04;10.50;;;8.70;;
47529;SDS011;33272;51.922;7.730;2023-09-08T04:00:33;10.00;;;8.93;;
47529;SDS011;33272;51.922;7.730;2023-09-08T04:03:00;10.90;;;9.13;;
47529;SDS011;33272;51.922;7.730;2023-09-08T04:05:27;11.03;;;8.87;;
47529;SDS011;33272;51.922;7.730;2023-09-08T04:07:54;10.53;;;9.07;;
47529;SDS011;33272;51.922;7.730;2023-09-08T04:10:21;10.13;;;9.03;;
47529;SDS011;33272;51.922;7.730;2023-09-08T04:12:48;10.93;;;8.63;;
47529;SDS011;33272;51.922;7.730;2023-09-08T04:15:15;9.83;;;8.57;;
47529;SDS011;33272;51.922;7.730;2023-09-08T04:17:43;10.03;;;9.07;;
47529;SDS011;33272;51.922;7.730;2023-09-08T04:20:12;11.50;;;9.67;;
47529;SDS011;33272;51.922;7.730;2023-09-08T04:22:40;10.23;;;8.97;;
47529;SDS011;33272;51.922;7.730;2023-09-08T04:25:07;10.73;;;9.50;;
47529;SDS011;33272;51.922;7.730;2023-09-08T04:27:35;11.03;;;9.43;;
47529;SDS011;33272;51.922;7.730;2023-09-08T04:30:03;10.43;;;9.30;;
47529;SDS011;33272;51.922;7.730;2023-09-08T04:32:31;11.10;;;9.70;;
47529;SDS011;33272;51.922;7.730;2023-09-08T04:34:59;12.30;;;10.10;;
47529;SDS011;33272;51.922;7.730;2023-09-08T04:37:26;10.70;;;9.70;;
47529;SDS011;33272;51.922;7.730;2023-09-08T04:39:55;10.90;;;9.80;;
47529;SDS011;33272;51.922;7.730;2023-09-08T04:42:22;11.53;;;10.10;;
47529;SDS011;33272;51.922;7.730;2023-09-08T04:44:49;11.47;;;10.20;;
47529;SDS011;33272;51.922;7.730;2023-09-08T04:47:16;13.17;;;10.53;;
47529;SDS011;33272;51.922;7.730;2023-09-08T04:49:43;11.60;;;9.70;;
47529;SDS011;33272;51.922;7.730;2023-09-08T04:52:12;10.93;;;9.77;;
47529;SDS011;33272;51.922;7.730;2023-09-08T04:54:39;12.57;;;9.70;;
47529;SDS011;33272;51.922;7.730;2023-09-08T04:57:06;10.00;;;8.90;;
47529;SDS011;33272;51.922;7.730;2023-09-08T04:59:33;10.63;;;9.17;;
47529;SDS011;33272;51.922;7.730;2023-09-08T05:02:02;14.03;;;10.77;;
47529;SDS011;33272;51.922;7.730;2023-09-08T05:04:29;11.77;;;9.40;;
47529;SDS011;33272;51.922;7.730;2023-09-08T05:06:56;12.33;;;10.27;;
47529;SDS011;33272;51.922;7.730;2023-09-08T05:09:24;11.00;;;9.77;;
47529;SDS011;33272;51.922;7.730;2023-09-08T05:11:51;11.67;;;10.50;;
47529;SDS011;33272;51.922;7.730;2023-09-08T05:14:18;10.73;;;9.63;;
47529;SDS011;33272;51.922;7.730;2023-09-08T05:16:45;12.13;;;9.87;;
47529;SDS011;33272;51.922;7.730;2023-09-08T05:19:14;11.13;;;10.00;;
47529;SDS011;33272;51.922;7.730;2023-09-08T05:21:42;12.07;;;10.80;;
47529;SDS011;33272;51.922;7.730;2023-09-08T05:24:09;10.40;;;9.30;;
47529;SDS011;33272;51.922;7.730;2023-09-08T05:26:37;12.20;;;9.73;;
47529;SDS011;33272;51.922;7.730;2023-09-08T05:29:07;11.80;;;10.57;;
47529;SDS011;33272;51.922;7.730;2023-09-08T05:31:34;11.03;;;9.73;;
47529;SDS011;33272;51.922;7.730;2023-09-08T05:34:01;11.23;;;9.83;;
47529;SDS011;33272;51.922;7.730;2023-09-08T05:36:29;11.57;;;9.83;;
47529;SDS011;33272;51.922;7.730;2023-09-08T05:38:57;12.60;;;10.53;;
47529;SDS011;33272;51.922;7.730;2023-09-08T05:41:24;12.70;;;9.93;;
47529;SDS011;33272;51.922;7.730;2023-09-08T05:43:52;12.23;;;9.27;;
47529;SDS011;33272;51.922;7.730;2023-09-08T05:46:19;13.47;;;9.37;;
47529;SDS011;33272;51.922;7.730;2023-09-08T05:48:46;10.70;;;9.70;;
47529;SDS011;33272;51.922;7.730;2023-09-08T05:51:14;13.73;;;9.57;;
47529;SDS011;33272;51.922;7.730;2023-09-08T05:53:41;10.30;;;9.30;;
47529;SDS011;33272;51.922;7.730;2023-09-08T05:56:08;13.80;;;9.27;;
47529;SDS011;33272;51.922;7.730;2023-09-08T05:58:36;11.30;;;9.83;;
47529;SDS011;33272;51.922;7.730;2023-09-08T06:01:04;11.23;;;8.87;;
47529;SDS011;33272;51.922;7.730;2023-09-08T06:03:32;9.97;;;8.77;;
47529;SDS011;33272;51.922;7.730;2023-09-08T06:05:59;10.53;;;8.60;;
47529;SDS011;33272;51.922;7.730;2023-09-08T06:08:26;9.60;;;8.03;;
47529;SDS011;33272;51.922;7.730;2023-09-08T06:10:53;11.97;;;8.40;;
47529;SDS011;33272;51.922;7.730;2023-09-08T06:13:20;9.07;;;8.17;;
47529;SDS011;33272;51.922;7.730;2023-09-08T06:15:47;9.27;;;7.90;;
47529;SDS011;33272;51.922;7.730;2023-09-08T06:18:15;10.13;;;7.83;;
47529;SDS011;33272;51.922;7.730;2023-09-08T06:20:45;10.10;;;8.07;;
47529;SDS011;33272;51.922;7.730;2023-09-08T06:23:12;8.30;;;7.40;;
47529;SDS011;33272;51.922;7.730;2023-09-08T06:25:40;9.80;;;8.23;;
47529;SDS011;33272;51.922;7.730;2023-09-08T06:28:07;7.47;;;6.77;;
47529;SDS011;33272;51.922;7.730;2023-09-08T06:30:34;10.60;;;8.00;;
47529;SDS011;33272;51.922;7.730;2023-09-08T06:33:01;7.93;;;7.13;;
47529;SDS011;33272;51.922;7.730;2023-09-08T06:35:30;9.70;;;8.70;;
47529;SDS011;33272;51.922;7.730;2023-09-08T06:37:58;12.53;;;8.00;;
47529;SDS011;33272;51.922;7.730;2023-09-08T06:40:25;9.43;;;7.70;;
47529;SDS011;33272;51.922;7.730;2023-09-08T06:42:55;8.77;;;7.37;;
47529;SDS011;33272;51.922;7.730;2023-09-08T06:45:22;8.33;;;7.50;;
47529;SDS011;33272;51.922;7.730;2023-09-08T06:47:49;8.53;;;7.57;;
47529;SDS011;33272;51.922;7.730;2023-09-08T06:50:19;7.73;;;7.03;;
47529;SDS011;33272;51.922;7.730;2023-09-08T06:52:48;7.60;;;6.83;;
47529;SDS011;33272;51.922;7.730;2023-09-08T06:55:15;13.83;;;7.40;;
47529;SDS011;33272;51.922;7.730;2023-09-08T06:57:42;8.27;;;6.70;;
47529;SDS011;33272;51.922;7.730;2023-09-08T07:00:10;7.77;;;6.23;;
47529;SDS011;33272;51.922;7.730;2023-09-08T07:02:38;6.67;;;5.97;;
47529;SDS011;33272;51.922;7.730;2023-09-08T07:05:06;8.90;;;6.47;;
47529;SDS011;33272;51.922;7.730;2023-09-08T07:07:33;8.23;;;6.20;;
47529;SDS011;33272;51.922;7.730;2023-09-08T07:10:02;7.93;;;6.23;;
47529;SDS011;33272;51.922;7.730;2023-09-08T07:12:29;7.13;;;6.43;;
47529;SDS011;33272;51.922;7.730;2023-09-08T07:14:57;7.00;;;6.00;;
47529;SDS011;33272;51.922;7.730;2023-09-08T07:17:24;8.87;;;6.77;;
47529;SDS011;33272;51.922;7.730;2023-09-08T07:19:52;9.90;;;5.40;;
47529;SDS011;33272;51.922;7.730;2023-09-08T07:22:19;8.67;;;6.43;;
47529;SDS011;33272;51.922;7.730;2023-09-08T07:24:46;7.87;;;6.47;;
47529;SDS011;33272;51.922;7.730;2023-09-08T07:27:14;7.73;;;5.27;;
47529;SDS011;33272;51.922;7.730;2023-09-08T07:29:41;7.97;;;5.83;;
47529;SDS011;33272;51.922;7.730;2023-09-08T07:32:08;7.57;;;5.70;;
47529;SDS011;33272;51.922;7.730;2023-09-08T07:34:35;8.40;;;6.00;;
47529;SDS011;33272;51.922;7.730;2023-09-08T07:37:02;6.33;;;5.57;;
47529;SDS011;33272;51.922;7.730;2023-09-08T07:39:29;8.80;;;5.77;;
47529;SDS011;33272;51.922;7.730;2023-09-08T07:41:57;6.47;;;5.23;;
47529;SDS011;33272;51.922;7.730;2023-09-08T07:44:26;7.23;;;5.57;;
47529;SDS011;33272;51.922;7.730;2023-09-08T07:46:53;6.57;;;5.30;;
47529;SDS011;33272;51.922;7.730;2023-09-08T07:49:21;6.80;;;5.50;;
47529;SDS011;33272;51.922;7.730;2023-09-08T07:51:49;8.43;;;5.77;;
47529;SDS011;33272;51.922;7.730;2023-09-08T07:54:16;6.47;;;5.57;;
47529;SDS011;33272;51.922;7.730;2023-09-08T07:56:43;7.20;;;5.30;;
47529;SDS011;33272;51.922;7.730;2023-09-08T07:59:10;7.40;;;5.50;;
47529;SDS011;33272;51.922;7.730;2023-09-08T08:01:38;8.60;;;5.83;;
47529;SDS011;33272;51.922;7.730;2023-09-08T08:04:05;7.40;;;6.37;;
47529;SDS011;33272;51.922;7.730;2023-09-08T08:06:32;6.73;;;5.03;;
47529;SDS011;33272;51.922;7.730;2023-09-08T08:08:59;5.87;;;5.37;;
47529;SDS011;33272;51.922;7.730;2023-09-08T08:11:26;8.13;;;5.30;;
47529;SDS011;33272;51.922;7.730;2023-09-08T08:13:53;6.80;;;5.80;;
47529;SDS011;33272;51.922;7.730;2023-09-08T08:16:21;6.87;;;6.17;;
47529;SDS011;33272;51.922;7.730;2023-09-08T08:18:50;6.40;;;5.70;;
47529;SDS011;33272;51.922;7.730;2023-09-08T08:21:18;6.43;;;5.40;;
47529;SDS011;33272;51.922;7.730;2023-09-08T08:23:47;8.43;;;5.93;;
47529;SDS011;33272;51.922;7.730;2023-09-08T08:26:14;6.10;;;5.47;;
47529;SDS011;33272;51.922;7.730;2023-09-08T08:28:42;6.93;;;6.00;;
47529;SDS011;33272;51.922;7.730;2023-09-08T08:31:09;6.63;;;5.60;;
47529;SDS011;33272;51.922;7.730;2023-09-08T08:33:36;7.57;;;5.13;;
47529;SDS011;33272;51.922;7.730;2023-09-08T08:36:05;6.70;;;5.97;;
47529;SDS011;33272;51.922;7.730;2023-09-08T08:38:34;6.07;;;5.47;;
47529;SDS011;33272;51.922;7.730;2023-09-08T08:41:02;6.93;;;5.20;;
47529;SDS011;33272;51.922;7.730;2023-09-08T08:43:30;6.80;;;5.00;;
47529;SDS011;33272;51.922;7.730;2023-09-08T08:45:58;7.37;;;5.80;;
47529;SDS011;33272;51.922;7.730;2023-09-08T08:48:27;7.50;;;5.50;;
47529;SDS011;33272;51.922;7.730;2023-09-08T08:50:57;8.40;;;5.50;;
47529;SDS011;33272;51.922;7.730;2023-09-08T08:53:27;5.70;;;4.70;;
47529;SDS011;33272;51.922;7.730;2023-09-08T08:55:55;5.83;;;5.20;;
47529;SDS011;33272;51.922;7.730;2023-09-08T08:58:25;6.10;;;4.43;;
47529;SDS011;33272;51.922;7.730;2023-09-08T09:00:54;9.30;;;4.70;;
47529;SDS011;33272;51.922;7.730;2023-09-08T09:03:21;5.90;;;4.83;;
47529;SDS011;33272;51.922;7.730;2023-09-08T09:05:52;6.97;;;5.03;;
47529;SDS011;33272;51.922;7.730;2023-09-08T09:08:19;5.30;;;4.47;;
47529;SDS011;33272;51.922;7.730;2023-09-08T09:10:49;6.33;;;4.60;;
47529;SDS011;33272;51.922;7.730;2023-09-08T09:13:17;5.10;;;4.50;;
47529;SDS011;33272;51.922;7.730;2023-09-08T09:15:44;11.77;;;4.67;;
47529;SDS011;33272;51.922;7.730;2023-09-08T09:18:11;9.87;;;5.90;;
47529;SDS011;33272;51.922;7.730;2023-09-08T09:20:38;6.27;;;4.37;;
47529;SDS011;33272;51.922;7.730;2023-09-08T09:23:07;9.07;;;4.43;;
47529;SDS011;33272;51.922;7.730;2023-09-08T09:25:35;4.47;;;4.00;;
47529;SDS011;33272;51.922;7.730;2023-09-08T09:28:04;6.10;;;4.50;;
47529;SDS011;33272;51.922;7.730;2023-09-08T09:30:45;7.03;;;4.13;;
47529;SDS011;33272;51.922;7.730;2023-09-08T09:33:14;7.63;;;3.93;;
47529;SDS011;33272;51.922;7.730;2023-09-08T09:35:42;5.00;;;3.87;;
47529;SDS011;33272;51.922;7.730;2023-09-08T09:38:11;6.33;;;3.97;;
47529;SDS011;33272;51.922;7.730;2023-09-08T09:40:39;4.53;;;3.77;;
47529;SDS011;33272;51.922;7.730;2023-09-08T09:43:07;4.13;;;3.73;;
47529;SDS011;33272;51.922;7.730;2023-09-08T09:45:36;4.77;;;3.90;;
47529;SDS011;33272;51.922;7.730;2023-09-08T09:48:05;4.20;;;3.80;;
47529;SDS011;33272;51.922;7.730;2023-09-08T09:50:34;4.63;;;3.63;;
47529;SDS011;33272;51.922;7.730;2023-09-08T09:53:07;4.53;;;3.70;;
47529;SDS011;33272;51.922;7.730;2023-09-08T09:55:36;4.70;;;3.53;;
47529;SDS011;33272;51.922;7.730;2023-09-08T09:58:05;4.50;;;3.70;;
47529;SDS011;33272;51.922;7.730;2023-09-08T10:00:34;5.30;;;3.37;;
47529;SDS011;33272;51.922;7.730;2023-09-08T10:03:02;3.93;;;3.53;;
47529;SDS011;33272;51.922;7.730;2023-09-08T10:05:31;6.47;;;3.70;;
47529;SDS011;33272;51.922;7.730;2023-09-08T10:07:58;5.57;;;3.20;;
47529;SDS011;33272;51.922;7.730;2023-09-08T10:10:26;4.07;;;3.63;;
47529;SDS011;33272;51.922;7.730;2023-09-08T10:12:57;4.83;;;3.60;;
47529;SDS011;33272;51.922;7.730;2023-09-08T10:15:28;3.70;;;3.40;;
47529;SDS011;33272;51.922;7.730;2023-09-08T10:17:59;4.57;;;3.63;;
47529;SDS011;33272;51.922;7.730;2023-09-08T10:20:29;6.07;;;3.60;;
47529;SDS011;33272;51.922;7.730;2023-09-08T10:23:02;3.80;;;3.50;;
47529;SDS011;33272;51.922;7.730;2023-09-08T10:25:34;4.00;;;3.60;;
47529;SDS011;33272;51.922;7.730;2023-09-08T10:28:08;4.13;;;3.73;;
47529;SDS011;33272;51.922;7.730;2023-09-08T10:30:36;5.73;;;3.47;;
47529;SDS011;33272;51.922;7.730;2023-09-08T10:33:05;6.33;;;3.43;;
47529;SDS011;33272;51.922;7.730;2023-09-08T10:35:33;5.37;;;3.30;;
47529;SDS011;33272;51.922;7.730;2023-09-08T10:41:17;3.77;;;3.47;;
47529;SDS011;33272;51.922;7.730;2023-09-08T10:43:57;6.03;;;3.50;;
47529;SDS011;33272;51.922;7.730;2023-09-08T10:46:28;3.93;;;3.60;;
47529;SDS011;33272;51.922;7.730;2023-09-08T10:49:04;4.63;;;3.47;;
47529;SDS011;33272;51.922;7.730;2023-09-08T10:51:35;5.57;;;3.47;;
47529;SDS011;33272;51.922;7.730;2023-09-08T10:54:02;5.37;;;3.47;;
47529;SDS011;33272;51.922;7.730;2023-09-08T10:56:46;4.17;;;3.37;;
47529;SDS011;33272;51.922;7.730;2023-09-08T10:59:19;3.40;;;3.10;;
47529;SDS011;33272;51.922;7.730;2023-09-08T11:01:50;3.37;;;3.07;;
47529;SDS011;33272;51.922;7.730;2023-09-08T11:04:21;4.87;;;3.47;;
47529;SDS011;33272;51.922;7.730;2023-09-08T11:06:49;3.60;;;3.30;;
47529;SDS011;33272;51.922;7.730;2023-09-08T11:09:16;3.87;;;3.47;;
47529;SDS011;33272;51.922;7.730;2023-09-08T11:11:45;3.97;;;3.53;;
47529;SDS011;33272;51.922;7.730;2023-09-08T11:14:12;4.53;;;3.77;;
47529;SDS011;33272;51.922;7.730;2023-09-08T11:16:40;4.43;;;3.50;;
47529;SDS011;33272;51.922;7.730;2023-09-08T11:19:07;3.40;;;3.10;;
47529;SDS011;33272;51.922;7.730;2023-09-08T11:21:36;4.43;;;3.73;;
47529;SDS011;33272;51.922;7.730;2023-09-08T11:24:03;4.23;;;3.37;;
47529;SDS011;33272;51.922;7.730;2023-09-08T11:26:32;4.40;;;3.80;;
47529;SDS011;33272;51.922;7.730;2023-09-08T11:29:00;5.87;;;4.03;;
47529;SDS011;33272;51.922;7.730;2023-09-08T11:31:27;5.50;;;3.90;;
47529;SDS011;33272;51.922;7.730;2023-09-08T11:33:54;7.00;;;4.00;;
47529;SDS011;33272;51.922;7.730;2023-09-08T11:36:21;5.13;;;3.60;;
47529;SDS011;33272;51.922;7.730;2023-09-08T11:38:50;6.23;;;4.20;;
47529;SDS011;33272;51.922;7.730;2023-09-08T11:41:18;5.13;;;3.70;;
47529;SDS011;33272;51.922;7.730;2023-09-08T11:43:49;4.10;;;3.70;;
47529;SDS011;33272;51.922;7.730;2023-09-08T11:46:16;3.70;;;3.37;;
47529;SDS011;33272;51.922;7.730;2023-09-08T11:48:43;5.03;;;3.80;;
47529;SDS011;33272;51.922;7.730;2023-09-08T11:51:10;3.73;;;3.37;;
47529;SDS011;33272;51.922;7.730;2023-09-08T11:53:37;4.83;;;3.70;;
47529;SDS011;33272;51.922;7.730;2023-09-08T11:56:06;4.83;;;3.23;;
47529;SDS011;33272;51.922;7.730;2023-09-08T11:58:33;5.67;;;3.40;;
47529;SDS011;33272;51.922;7.730;2023-09-08T12:01:01;3.60;;;3.30;;
47529;SDS011;33272;51.922;7.730;2023-09-08T12:03:29;3.97;;;3.60;;
47529;SDS011;33272;51.922;7.730;2023-09-08T12:05:56;6.33;;;3.47;;
47529;SDS011;33272;51.922;7.730;2023-09-08T12:08:25;3.80;;;3.50;;
47529;SDS011;33272;51.922;7.730;2023-09-08T12:10:53;5.43;;;3.50;;
47529;SDS011;33272;51.922;7.730;2023-09-08T12:13:21;5.07;;;3.83;;
47529;SDS011;33272;51.922;7.730;2023-09-08T12:15:49;4.23;;;3.60;;
47529;SDS011;33272;51.922;7.730;2023-09-08T12:18:16;4.00;;;3.47;;
47529;SDS011;33272;51.922;7.730;2023-09-08T12:20:43;5.40;;;3.50;;
47529;SDS011;33272;51.922;7.730;2023-09-08T12:23:20;4.27;;;3.57;;
47529;SDS011;33272;51.922;7.730;2023-09-08T12:25:49;4.30;;;3.70;;
47529;SDS011;33272;51.922;7.730;2023-09-08T12:28:18;4.07;;;3.67;;
47529;SDS011;33272;51.922;7.730;2023-09-08T12:30:48;4.50;;;3.57;;
47529;SDS011;33272;51.922;7.730;2023-09-08T12:33:16;4.40;;;3.50;;
47529;SDS011;33272;51.922;7.730;2023-09-08T12:35:45;5.43;;;4.00;;
47529;SDS011;33272;51.922;7.730;2023-09-08T12:38:13;4.00;;;3.60;;
47529;SDS011;33272;51.922;7.730;2023-09-08T12:40:40;3.43;;;3.07;;
47529;SDS011;33272;51.922;7.730;2023-09-08T12:43:07;4.37;;;3.67;;
47529;SDS011;33272;51.922;7.730;2023-09-08T12:45:34;4.70;;;3.90;;
47529;SDS011;33272;51.922;7.730;2023-09-08T12:48:03;4.93;;;3.37;;
47529;SDS011;33272;51.922;7.730;2023-09-08T12:50:32;4.47;;;4.07;;
47529;SDS011;33272;51.922;7.730;2023-09-08T12:52:59;4.13;;;3.47;;
47529;SDS011;33272;51.922;7.730;2023-09-08T12:55:26;4.03;;;3.60;;
47529;SDS011;33272;51.922;7.730;2023-09-08T12:57:52;3.73;;;3.43;;
47529;SDS011;33272;51.922;7.730;2023-09-08T13:00:20;4.33;;;3.80;;
47529;SDS011;33272;51.922;7.730;2023-09-08T13:02:48;4.23;;;3.50;;
47529;SDS011;33272;51.922;7.730;2023-09-08T13:05:17;4.70;;;3.20;;
47529;SDS011;33272;51.922;7.730;2023-09-08T13:07:44;4.53;;;3.50;;
47529;SDS011;33272;51.922;7.730;2023-09-08T13:10:11;3.70;;;3.33;;
47529;SDS011;33272;51.922;7.730;2023-09-08T13:12:38;4.20;;;3.10;;
47529;SDS011;33272;51.922;7.730;2023-09-08T13:15:05;4.00;;;3.67;;
47529;SDS011;33272;51.922;7.730;2023-09-08T13:17:33;3.93;;;3.20;;
47529;SDS011;33272;51.922;7.730;2023-09-08T13:20:01;4.20;;;3.47;;
47529;SDS011;33272;51.922;7.730;2023-09-08T13:22:29;4.93;;;3.40;;
47529;SDS011;33272;51.922;7.730;2023-09-08T13:24:56;5.13;;;3.40;;
47529;SDS011;33272;51.922;7.730;2023-09-08T13:27:23;5.77;;;3.50;;
47529;SDS011;33272;51.922;7.730;2023-09-08T13:29:52;4.87;;;4.07;;
47529;SDS011;33272;51.922;7.730;2023-09-08T13:32:20;3.60;;;3.30;;
47529;SDS011;33272;51.922;7.730;2023-09-08T13:34:50;4.73;;;3.33;;
47529;SDS011;33272;51.922;7.730;2023-09-08T13:37:16;4.13;;;3.30;;
47529;SDS011;33272;51.922;7.730;2023-09-08T13:39:45;4.30;;;3.37;;
47529;SDS011;33272;51.922;7.730;2023-09-08T13:42:12;3.83;;;3.40;;
47529;SDS011;33272;51.922;7.730;2023-09-08T13:44:39;3.67;;;3.07;;
47529;SDS011;33272;51.922;7.730;2023-09-08T13:47:06;4.07;;;3.30;;
47529;SDS011;33272;51.922;7.730;2023-09-08T13:49:33;4.03;;;3.40;;
47529;SDS011;33272;51.922;7.730;2023-09-08T13:52:00;4.87;;;3.50;;
47529;SDS011;33272;51.922;7.730;2023-09-08T13:54:27;5.33;;;3.20;;
47529;SDS011;33272;51.922;7.730;2023-09-08T13:56:59;3.40;;;3.10;;
47529;SDS011;33272;51.922;7.730;2023-09-08T13:59:27;5.93;;;3.43;;
47529;SDS011;33272;51.922;7.730;2023-09-08T14:01:55;4.30;;;3.40;;
47529;SDS011;33272;51.922;7.730;2023-09-08T14:04:24;3.77;;;3.43;;
47529;SDS011;33272;51.922;7.730;2023-09-08T14:06:51;3.47;;;3.17;;
47529;SDS011;33272;51.922;7.730;2023-09-08T14:09:18;3.50;;;3.20;;
47529;SDS011;33272;51.922;7.730;2023-09-08T14:11:45;3.80;;;3.40;;
47529;SDS011;33272;51.922;7.730;2023-09-08T14:14:14;3.80;;;3.40;;
47529;SDS011;33272;51.922;7.730;2023-09-08T14:16:41;3.60;;;3.30;;
47529;SDS011;33272;51.922;7.730;2023-09-08T14:19:09;5.67;;;3.57;;
47529;SDS011;33272;51.922;7.730;2023-09-08T14:21:36;3.70;;;3.33;;
47529;SDS011;33272;51.922;7.730;2023-09-08T14:24:04;4.57;;;3.40;;
47529;SDS011;33272;51.922;7.730;2023-09-08T14:26:32;3.50;;;3.20;;
47529;SDS011;33272;51.922;7.730;2023-09-08T14:29:00;5.07;;;3.40;;
47529;SDS011;33272;51.922;7.730;2023-09-08T14:31:32;4.80;;;3.83;;
47529;SDS011;33272;51.922;7.730;2023-09-08T14:33:59;4.40;;;3.60;;
47529;SDS011;33272;51.922;7.730;2023-09-08T14:36:26;4.37;;;3.43;;
47529;SDS011;33272;51.922;7.730;2023-09-08T14:38:53;4.10;;;3.27;;
47529;SDS011;33272;51.922;7.730;2023-09-08T14:41:22;4.57;;;2.90;;
47529;SDS011;33272;51.922;7.730;2023-09-08T14:43:49;4.50;;;3.40;;
47529;SDS011;33272;51.922;7.730;2023-09-08T14:46:16;3.63;;;3.17;;
47529;SDS011;33272;51.922;7.730;2023-09-08T14:48:46;3.73;;;3.10;;
47529;SDS011;33272;51.922;7.730;2023-09-08T14:51:13;4.20;;;3.80;;
47529;SDS011;33272;51.922;7.730;2023-09-08T14:53:40;3.87;;;3.57;;
47529;SDS011;33272;51.922;7.730;2023-09-08T14:56:07;6.90;;;3.50;;